createdAt,value
2018-12-17T00:01:29.498Z,23.35
2018-12-17T00:03:57.805Z,22.90
2018-12-17T00:06:26.142Z,23.07
2018-12-17T00:08:54.513Z,23.18
2018-12-17T00:11:22.882Z,24.87
2018-12-17T00:13:51.253Z,22.82
2018-12-17T00:16:19.563Z,22.87
2018-12-17T00:18:47.845Z,23.32
2018-12-17T00:21:16.277Z,23.57
2018-12-17T00:23:44.624Z,23.47
2018-12-17T00:26:13.346Z,23.55
2018-12-17T00:28:41.674Z,23.65
2018-12-17T00:31:10.696Z,24.10
2018-12-17T00:33:39.022Z,24.47
2018-12-17T00:36:07.422Z,23.20
2018-12-17T00:38:35.744Z,24.37
2018-12-17T00:41:04.622Z,23.73
2018-12-17T00:43:33.554Z,24.80
2018-12-17T00:46:01.897Z,25.25
2018-12-17T00:48:30.420Z,24.87
2018-12-17T00:50:58.942Z,25.30
2018-12-17T00:53:27.245Z,26.17
2018-12-17T00:55:55.584Z,24.50
2018-12-17T00:58:23.906Z,23.73
2018-12-17T01:00:52.189Z,23.87
2018-12-17T01:03:20.499Z,25.23
2018-12-17T01:05:48.962Z,24.75
2018-12-17T01:08:17.251Z,26.80
2018-12-17T01:10:45.580Z,25.60
2018-12-17T01:13:13.885Z,25.00
2018-12-17T01:15:42.190Z,23.85
2018-12-17T01:18:10.589Z,26.10
2018-12-17T01:20:38.935Z,28.45
2018-12-17T01:23:07.208Z,26.20
2018-12-17T01:25:35.536Z,26.87
2018-12-17T01:28:04.209Z,26.37
2018-12-17T01:30:33.326Z,26.10
2018-12-17T01:33:01.653Z,26.40
2018-12-17T01:35:29.987Z,27.42
2018-12-17T01:37:58.364Z,26.10
2018-12-17T01:40:26.823Z,27.32
2018-12-17T01:42:55.297Z,26.20
2018-12-17T01:45:23.628Z,26.57
2018-12-17T01:47:51.916Z,25.68
2018-12-17T01:50:21.618Z,27.35
2018-12-17T01:52:50.031Z,25.75
2018-12-17T01:55:18.380Z,25.72
2018-12-17T01:57:46.705Z,26.45
2018-12-17T02:00:15.040Z,26.35
2018-12-17T02:02:43.357Z,27.27
2018-12-17T02:05:11.669Z,27.02
2018-12-17T02:07:39.984Z,27.22
2018-12-17T02:10:08.350Z,27.00
2018-12-17T02:12:36.744Z,27.22
2018-12-17T02:15:06.101Z,28.50
2018-12-17T02:17:34.497Z,27.98
2018-12-17T02:20:04.406Z,29.98
2018-12-17T02:22:32.777Z,29.60
2018-12-17T02:25:01.067Z,28.30
2018-12-17T02:27:29.423Z,27.98
2018-12-17T02:29:57.757Z,28.60
2018-12-17T02:32:26.069Z,32.38
2018-12-17T02:34:54.539Z,31.52
2018-12-17T02:37:22.851Z,31.25
2018-12-17T02:39:51.173Z,29.15
2018-12-17T02:42:19.550Z,32.35
2018-12-17T02:44:47.925Z,33.23
2018-12-17T02:47:16.252Z,28.98
2018-12-17T02:49:44.641Z,32.73
2018-12-17T02:52:12.962Z,31.95
2018-12-17T02:54:42.018Z,32.95
2018-12-17T02:57:10.569Z,30.97
2018-12-17T02:59:38.869Z,30.95
2018-12-17T03:02:07.351Z,33.67
2018-12-17T03:04:35.744Z,32.93
2018-12-17T03:07:04.144Z,32.15
2018-12-17T03:09:32.508Z,34.20
2018-12-17T03:12:00.952Z,32.10
2018-12-17T03:14:29.421Z,33.13
2018-12-17T03:16:57.776Z,32.85
2018-12-17T03:19:26.446Z,33.20
2018-12-17T03:21:54.725Z,36.23
2018-12-17T03:24:23.006Z,36.13
2018-12-17T03:26:51.389Z,34.18
2018-12-17T03:29:19.765Z,34.85
2018-12-17T03:31:48.449Z,33.58
2018-12-17T03:34:16.870Z,35.10
2018-12-17T03:36:45.212Z,36.15
2018-12-17T03:39:13.613Z,37.45
2018-12-17T03:41:42.080Z,35.95
2018-12-17T03:44:10.416Z,34.48
2018-12-17T03:46:38.743Z,33.90
2018-12-17T03:49:07.085Z,35.15
2018-12-17T03:51:35.397Z,33.90
2018-12-17T03:54:03.731Z,35.00
2018-12-17T03:56:32.087Z,35.33
2018-12-17T03:59:00.476Z,35.58
2018-12-17T04:01:28.999Z,34.30
2018-12-17T04:03:57.427Z,34.98
2018-12-17T04:06:25.829Z,33.80
2018-12-17T04:08:54.187Z,34.25
2018-12-17T04:11:22.560Z,33.98
2018-12-17T04:13:50.868Z,33.83
2018-12-17T04:16:19.206Z,36.08
2018-12-17T04:18:47.570Z,36.08
2018-12-17T04:21:15.910Z,35.25
2018-12-17T04:23:44.238Z,35.98
2018-12-17T04:26:12.992Z,36.85
2018-12-17T04:28:41.321Z,36.15
2018-12-17T04:31:09.646Z,36.08
2018-12-17T04:33:38.047Z,35.75
2018-12-17T04:36:06.381Z,35.13
2018-12-17T04:38:34.666Z,36.25
2018-12-17T04:41:02.962Z,37.15
2018-12-17T04:43:31.294Z,36.68
2018-12-17T04:45:59.604Z,36.08
2018-12-17T04:48:28.029Z,37.17
2018-12-17T04:50:56.329Z,39.15
2018-12-17T04:53:24.828Z,38.75
2018-12-17T04:55:53.292Z,40.65
2018-12-17T04:58:21.599Z,35.92
2018-12-17T05:00:49.891Z,38.25
2018-12-17T05:03:18.200Z,39.73
2018-12-17T05:05:46.560Z,37.98
2018-12-17T05:08:15.279Z,38.53
2018-12-17T05:10:44.261Z,38.20
2018-12-17T05:13:12.546Z,36.98
2018-12-17T05:15:40.882Z,38.45
2018-12-17T05:18:09.194Z,37.65
2018-12-17T05:20:37.476Z,39.80
2018-12-17T05:23:05.940Z,36.20
2018-12-17T05:25:34.289Z,36.53
2018-12-17T05:28:02.617Z,37.33
2018-12-17T05:30:30.992Z,36.25
2018-12-17T05:33:00.389Z,38.30
2018-12-17T05:35:28.692Z,38.63
2018-12-17T05:37:57.044Z,40.20
2018-12-17T05:40:25.348Z,40.60
2018-12-17T05:42:53.724Z,39.35
2018-12-17T05:45:22.017Z,38.95
2018-12-17T05:47:50.350Z,38.60
2018-12-17T05:50:18.649Z,40.40
2018-12-17T05:52:46.967Z,39.70
2018-12-17T05:55:15.675Z,41.10
2018-12-17T05:57:43.959Z,40.15
2018-12-17T06:00:12.348Z,38.50
2018-12-17T06:02:40.721Z,38.85
2018-12-17T06:05:09.075Z,40.48
2018-12-17T06:07:37.357Z,41.48
2018-12-17T06:10:05.874Z,42.95
2018-12-17T06:12:34.243Z,40.00
2018-12-17T06:15:02.529Z,39.88
2018-12-17T06:17:30.993Z,41.13
2018-12-17T06:19:59.348Z,41.80
2018-12-17T06:22:27.669Z,41.85
2018-12-17T06:24:56.026Z,44.20
2018-12-17T06:27:24.311Z,42.40
2018-12-17T06:29:52.618Z,42.73
2018-12-17T06:32:20.945Z,41.40
2018-12-17T06:34:49.233Z,43.58
2018-12-17T06:37:17.564Z,45.08
2018-12-17T06:39:45.967Z,45.95
2018-12-17T06:42:14.252Z,44.42
2018-12-17T06:44:42.548Z,44.15
2018-12-17T06:47:10.894Z,41.55
2018-12-17T06:49:39.192Z,43.25
2018-12-17T06:52:07.676Z,42.30
2018-12-17T06:54:36.151Z,45.15
2018-12-17T06:57:04.502Z,42.85
2018-12-17T06:59:32.825Z,43.63
2018-12-17T07:02:01.637Z,44.80
2018-12-17T07:04:29.979Z,43.92
2018-12-17T07:06:58.257Z,45.88
2018-12-17T07:09:26.584Z,45.70
2018-12-17T07:11:54.930Z,46.18
2018-12-17T07:14:23.222Z,45.03
2018-12-17T07:16:51.579Z,44.42
2018-12-17T07:19:19.875Z,45.43
2018-12-17T07:21:48.217Z,43.02
2018-12-17T07:24:16.620Z,42.67
2018-12-17T07:26:44.908Z,40.33
2018-12-17T07:29:13.225Z,45.63
2018-12-17T07:31:41.530Z,41.42
2018-12-17T07:34:09.837Z,44.08
2018-12-17T07:36:38.164Z,44.53
2018-12-17T07:39:08.288Z,44.35
2018-12-17T07:41:37.049Z,44.50
2018-12-17T07:44:05.342Z,44.00
2018-12-17T07:46:33.990Z,42.93
2018-12-17T07:49:02.362Z,44.38
2018-12-17T07:51:30.681Z,42.50
2018-12-17T07:53:58.990Z,40.58
2018-12-17T07:56:27.265Z,42.80
2018-12-17T08:01:30.177Z,44.55
2018-12-17T08:03:58.473Z,40.58
2018-12-17T08:06:26.795Z,42.93
2018-12-17T08:08:55.553Z,44.73
2018-12-17T08:11:23.873Z,42.08
2018-12-17T08:13:52.269Z,41.68
2018-12-17T08:16:20.584Z,41.98
2018-12-17T08:18:49.828Z,43.70
2018-12-17T08:21:18.369Z,44.58
2018-12-17T08:23:46.677Z,44.75
2018-12-17T08:26:15.175Z,43.60
2018-12-17T08:28:43.486Z,40.85
2018-12-17T08:31:12.253Z,41.37
2018-12-17T08:33:40.565Z,42.55
2018-12-17T08:36:08.927Z,41.50
2018-12-17T08:38:37.314Z,41.02
2018-12-17T08:41:05.622Z,41.83
2018-12-17T08:43:33.953Z,45.70
2018-12-17T08:46:02.334Z,43.42
2018-12-17T08:48:30.674Z,41.48
2018-12-17T08:50:59.021Z,39.98
2018-12-17T08:53:27.696Z,42.08
2018-12-17T08:55:56.039Z,39.85
2018-12-17T08:58:24.861Z,41.00
2018-12-17T09:00:53.200Z,39.65
2018-12-17T09:03:21.551Z,39.65
2018-12-17T09:05:49.834Z,40.50
2018-12-17T09:08:18.174Z,41.18
2018-12-17T09:10:46.522Z,43.52
2018-12-17T09:13:14.833Z,38.98
2018-12-17T09:15:43.504Z,42.75
2018-12-17T09:18:11.857Z,40.70
2018-12-17T09:20:40.183Z,39.33
2018-12-17T09:23:08.587Z,38.90
2018-12-17T09:25:36.913Z,40.40
2018-12-17T09:28:05.209Z,41.33
2018-12-17T09:30:33.650Z,38.78
2018-12-17T09:33:01.955Z,37.15
2018-12-17T09:35:30.323Z,36.55
2018-12-17T09:37:58.729Z,38.25
2018-12-17T09:40:27.159Z,38.30
2018-12-17T09:42:55.640Z,37.95
2018-12-17T09:45:23.957Z,36.68
2018-12-17T09:47:52.321Z,37.30
2018-12-17T09:50:20.648Z,36.60
2018-12-17T09:52:49.030Z,37.58
2018-12-17T09:55:17.351Z,37.60
2018-12-17T09:57:45.672Z,37.05
2018-12-17T10:00:14.102Z,36.80
2018-12-17T10:02:42.481Z,36.08
2018-12-17T10:05:10.886Z,37.13
2018-12-17T10:07:43.067Z,36.33
2018-12-17T10:10:11.402Z,37.17
2018-12-17T10:12:39.697Z,38.08
2018-12-17T10:15:08.095Z,35.55
2018-12-17T10:17:36.410Z,36.10
2018-12-17T10:20:05.922Z,35.00
2018-12-17T10:22:34.499Z,37.23
2018-12-17T10:25:02.850Z,37.28
2018-12-17T10:27:31.238Z,37.90
2018-12-17T10:29:59.611Z,38.13
2018-12-17T10:32:27.911Z,38.55
2018-12-17T10:34:56.228Z,36.30
2018-12-17T10:37:24.583Z,35.80
2018-12-17T10:39:52.914Z,35.73
2018-12-17T10:42:21.219Z,38.08
2018-12-17T10:44:49.906Z,39.10
2018-12-17T10:47:18.237Z,35.58
2018-12-17T10:49:46.583Z,37.30
2018-12-17T10:52:14.919Z,39.38
2018-12-17T10:54:43.249Z,36.13
2018-12-17T10:57:11.556Z,36.93
2018-12-17T10:59:39.945Z,36.68
2018-12-17T11:02:10.603Z,35.85
2018-12-17T11:04:40.841Z,34.40
2018-12-17T11:07:09.290Z,37.80
2018-12-17T11:09:37.645Z,36.15
2018-12-17T11:12:06.016Z,39.00
2018-12-17T11:14:34.414Z,38.80
2018-12-17T11:17:02.742Z,36.03
2018-12-17T11:19:31.085Z,38.05
2018-12-17T11:21:59.535Z,37.78
2018-12-17T11:24:27.918Z,37.03
2018-12-17T11:26:56.237Z,37.03
2018-12-17T11:29:25.032Z,36.25
2018-12-17T11:31:53.344Z,35.30
2018-12-17T11:34:21.661Z,37.23
2018-12-17T11:36:50.076Z,35.50
2018-12-17T11:39:18.390Z,36.13
2018-12-17T11:41:46.687Z,34.25
2018-12-17T11:44:15.021Z,35.38
2018-12-17T11:46:44.404Z,36.35
2018-12-17T11:49:12.954Z,34.13
2018-12-17T11:51:41.398Z,34.88
2018-12-17T11:54:09.722Z,35.00
2018-12-17T11:56:46.525Z,35.08
2018-12-17T11:59:14.857Z,35.52
2018-12-17T12:01:43.194Z,36.17
2018-12-17T12:04:11.548Z,35.52
2018-12-17T12:06:39.879Z,34.92
2018-12-17T12:09:08.219Z,35.63
2018-12-17T12:11:37.014Z,33.48
2018-12-17T12:14:05.298Z,35.20
2018-12-17T12:16:33.639Z,35.13
2018-12-17T12:19:02.073Z,35.58
2018-12-17T12:21:30.396Z,33.75
2018-12-17T12:23:58.674Z,34.85
2018-12-17T12:26:27.029Z,35.38
2018-12-17T12:28:55.345Z,33.45
2018-12-17T12:31:23.634Z,34.58
2018-12-17T12:33:52.299Z,37.83
2018-12-17T12:36:20.589Z,34.00
2018-12-17T12:38:48.948Z,31.95
2018-12-17T12:41:17.270Z,33.53
2018-12-17T12:43:45.632Z,33.63
2018-12-17T12:46:14.002Z,34.13
2018-12-17T12:48:42.424Z,37.60
2018-12-17T12:51:10.737Z,33.23
2018-12-17T12:53:39.050Z,33.45
2018-12-17T12:56:07.829Z,34.55
2018-12-17T12:58:36.129Z,31.87
2018-12-17T13:01:07.591Z,34.20
2018-12-17T13:03:35.195Z,33.55
2018-12-17T13:06:03.481Z,32.53
2018-12-17T13:08:31.793Z,35.78
2018-12-17T13:11:00.121Z,32.88
2018-12-17T13:13:29.181Z,34.50
2018-12-17T13:15:57.485Z,34.20
2018-12-17T13:18:25.953Z,32.50
2018-12-17T13:20:54.265Z,33.67
2018-12-17T13:23:22.680Z,31.85
2018-12-17T13:25:51.112Z,33.33
2018-12-17T13:28:19.432Z,35.25
2018-12-17T13:30:47.850Z,31.50
2018-12-17T13:33:16.223Z,34.48
2018-12-17T13:35:44.552Z,31.10
2018-12-17T13:38:12.857Z,32.03
2018-12-17T13:40:41.247Z,30.92
2018-12-17T13:43:09.589Z,33.70
2018-12-17T13:45:37.865Z,30.30
2018-12-17T13:48:06.214Z,31.12
2018-12-17T13:50:36.480Z,31.23
2018-12-17T13:53:11.103Z,31.33
2018-12-17T13:55:39.417Z,30.82
2018-12-17T13:58:07.792Z,29.18
2018-12-17T14:00:36.258Z,31.12
2018-12-17T14:03:04.632Z,30.15
2018-12-17T14:05:33.007Z,28.95
2018-12-17T14:08:01.333Z,29.77
2018-12-17T14:10:35.211Z,28.02
2018-12-17T14:13:03.631Z,29.15
2018-12-17T14:15:37.435Z,28.45
2018-12-17T14:18:07.857Z,27.50
2018-12-17T14:20:41.760Z,27.40
2018-12-17T14:23:10.105Z,27.73
2018-12-17T14:25:38.405Z,30.52
2018-12-17T14:28:06.710Z,30.75
2018-12-17T14:30:35.074Z,30.95
2018-12-17T14:33:03.396Z,27.62
2018-12-17T14:35:31.685Z,25.77
2018-12-17T14:38:03.520Z,28.45
2018-12-17T14:40:32.504Z,29.02
2018-12-17T14:43:00.857Z,27.27
2018-12-17T14:45:29.220Z,27.55
2018-12-17T14:47:57.544Z,26.60
2018-12-17T14:50:25.883Z,26.97
2018-12-17T14:52:54.216Z,27.87
2018-12-17T14:55:22.543Z,27.50
2018-12-17T14:57:50.850Z,27.90
2018-12-17T15:00:19.838Z,25.82
2018-12-17T15:02:48.149Z,25.65
2018-12-17T15:05:16.465Z,26.52
2018-12-17T15:07:44.757Z,27.77
2018-12-17T15:10:13.080Z,25.05
2018-12-17T15:12:41.357Z,26.23
2018-12-17T15:15:10.862Z,22.90
2018-12-17T15:17:39.137Z,27.93
2018-12-17T15:20:09.957Z,24.95
2018-12-17T15:22:38.442Z,27.40
2018-12-17T15:25:08.746Z,24.67
2018-12-17T15:27:37.101Z,24.67
2018-12-17T15:30:05.922Z,24.00
2018-12-17T15:32:34.367Z,24.50
2018-12-17T15:35:02.695Z,24.12
2018-12-17T15:37:31.055Z,24.45
2018-12-17T15:39:59.338Z,23.70
2018-12-17T15:42:27.736Z,23.50
2018-12-17T15:44:56.520Z,24.27
2018-12-17T15:47:24.826Z,24.20
2018-12-17T15:49:53.200Z,22.05
2018-12-17T15:52:21.544Z,25.10
2018-12-17T15:54:49.960Z,23.90
2018-12-17T15:57:18.596Z,23.00
2018-12-17T15:59:46.924Z,25.50
2018-12-17T16:02:15.259Z,24.00
2018-12-17T16:04:43.557Z,21.87
2018-12-17T16:07:11.990Z,24.80
2018-12-17T16:09:40.345Z,24.87
2018-12-17T16:12:08.700Z,24.55
2018-12-17T16:14:37.025Z,24.32
2018-12-17T16:17:05.364Z,22.75
2018-12-17T16:19:33.706Z,23.50
2018-12-17T16:22:02.051Z,23.07
2018-12-17T16:24:30.369Z,22.73
2018-12-17T16:26:58.689Z,24.25
2018-12-17T16:29:27.775Z,23.50
2018-12-17T16:31:57.393Z,21.97
2018-12-17T16:34:26.248Z,22.87
2018-12-17T16:36:54.646Z,23.73
2018-12-17T16:39:22.973Z,23.38
2018-12-17T16:41:51.292Z,25.15
2018-12-17T16:44:19.625Z,23.77
2018-12-17T16:46:48.084Z,24.35
2018-12-17T16:49:16.400Z,22.62
2018-12-17T16:51:45.340Z,23.92
2018-12-17T16:54:13.644Z,24.40
2018-12-17T16:56:42.011Z,22.22
2018-12-17T16:59:10.346Z,22.65
2018-12-17T17:01:38.641Z,24.45
2018-12-17T17:04:06.965Z,25.37
2018-12-17T17:06:35.370Z,24.40
2018-12-17T17:09:05.401Z,22.15
2018-12-17T17:11:33.800Z,23.67
2018-12-17T17:14:02.535Z,25.05
2018-12-17T17:16:30.850Z,23.15
2018-12-17T17:18:59.170Z,21.90
2018-12-17T17:21:27.575Z,23.32
2018-12-17T17:23:55.932Z,24.43
2018-12-17T17:26:24.263Z,24.37
2018-12-17T17:28:52.572Z,24.77
2018-12-17T17:31:21.357Z,26.10
2018-12-17T17:33:49.696Z,25.52
2018-12-17T17:36:18.117Z,26.33
2018-12-17T17:38:46.430Z,24.50
2018-12-17T17:41:14.774Z,23.20
2018-12-17T17:43:43.102Z,24.05
2018-12-17T17:46:11.435Z,24.47
2018-12-17T17:48:39.806Z,24.05
2018-12-17T17:51:08.239Z,24.43
2018-12-17T17:53:36.553Z,25.12
2018-12-17T17:56:04.933Z,25.52
2018-12-17T17:58:33.556Z,24.47
2018-12-17T18:01:01.875Z,25.30
2018-12-17T18:03:30.281Z,23.75
2018-12-17T18:06:00.383Z,25.02
2018-12-17T18:08:29.062Z,24.98
2018-12-17T18:10:57.375Z,24.85
2018-12-17T18:13:25.785Z,25.10
2018-12-17T18:15:54.079Z,24.80
2018-12-17T18:18:22.549Z,24.57
2018-12-17T18:20:51.061Z,24.90
2018-12-17T18:23:19.423Z,26.35
2018-12-17T18:25:47.767Z,26.02
2018-12-17T18:28:16.152Z,27.02
2018-12-17T18:30:44.540Z,27.20
2018-12-17T18:33:12.868Z,26.62
2018-12-17T18:35:41.267Z,26.12
2018-12-17T18:38:09.584Z,27.77
2018-12-17T18:40:38.633Z,25.88
2018-12-17T18:43:07.068Z,26.02
2018-12-17T18:45:35.463Z,25.17
2018-12-17T18:48:04.114Z,28.23
2018-12-17T18:50:32.529Z,27.55
2018-12-17T18:53:00.838Z,26.45
2018-12-17T18:55:29.209Z,26.55
2018-12-17T18:57:57.590Z,27.07
2018-12-17T19:00:25.963Z,26.80
2018-12-17T19:02:54.278Z,27.00
2018-12-17T19:05:22.712Z,28.67
2018-12-17T19:07:51.066Z,28.05
2018-12-17T19:10:19.383Z,26.52
2018-12-17T19:12:47.710Z,26.60
2018-12-17T19:15:16.063Z,26.62
2018-12-17T19:17:44.355Z,29.00
2018-12-17T19:20:21.171Z,28.15
2018-12-17T19:22:49.547Z,28.47
2018-12-17T19:25:18.466Z,27.00
2018-12-17T19:27:47.253Z,24.90
2018-12-17T19:30:15.604Z,26.42
2018-12-17T19:32:43.947Z,27.27
2018-12-17T19:35:12.323Z,26.33
2018-12-17T19:37:40.657Z,26.60
2018-12-17T19:40:09.502Z,25.50
2018-12-17T19:42:38.484Z,27.30
2018-12-17T19:45:07.143Z,26.40
2018-12-17T19:47:35.463Z,27.95
2018-12-17T19:50:06.349Z,27.27
2018-12-17T19:52:34.704Z,24.95
2018-12-17T19:55:03.048Z,28.15
2018-12-17T19:57:31.404Z,27.17
2018-12-17T19:59:59.710Z,29.02
2018-12-17T20:02:28.033Z,28.10
2018-12-17T20:04:56.385Z,25.52
2018-12-17T20:07:24.734Z,26.62
2018-12-17T20:09:53.007Z,27.35
2018-12-17T20:12:21.769Z,27.00
2018-12-17T20:14:50.064Z,26.62
2018-12-17T20:17:18.397Z,26.87
2018-12-17T20:19:46.817Z,27.87
2018-12-17T20:22:15.132Z,26.00
2018-12-17T20:24:43.441Z,26.20
2018-12-17T20:27:11.857Z,27.45
2018-12-17T20:29:40.164Z,28.67
2018-12-17T20:32:08.488Z,25.85
2018-12-17T20:34:37.233Z,28.70
2018-12-17T20:37:05.572Z,28.10
2018-12-17T20:39:33.903Z,29.80
2018-12-17T20:42:02.341Z,27.85
2018-12-17T20:44:30.694Z,27.32
2018-12-17T20:46:59.043Z,27.80
2018-12-17T20:49:27.773Z,27.00
2018-12-17T20:51:56.109Z,29.70
2018-12-17T20:54:24.781Z,27.85
2018-12-17T20:56:53.312Z,28.30
2018-12-17T20:59:21.645Z,28.52
2018-12-17T21:01:49.971Z,28.75
2018-12-17T21:04:18.339Z,26.45
2018-12-17T21:06:49.804Z,27.75
2018-12-17T21:09:17.010Z,28.45
2018-12-17T21:11:45.425Z,28.50
2018-12-17T21:14:13.730Z,27.65
2018-12-17T21:16:42.986Z,28.25
2018-12-17T21:19:11.518Z,28.12
2018-12-17T21:21:40.779Z,29.32
2018-12-17T21:24:09.177Z,28.60
2018-12-17T21:26:37.548Z,28.98
2018-12-17T21:29:05.995Z,30.35
2018-12-17T21:31:34.394Z,27.82
2018-12-17T21:34:02.745Z,28.05
2018-12-17T21:36:31.098Z,28.23
2018-12-17T21:38:59.496Z,29.07
2018-12-17T21:41:28.011Z,29.37
2018-12-17T21:43:56.322Z,29.15
2018-12-17T21:46:24.806Z,30.30
2018-12-17T21:48:53.157Z,28.30
2018-12-17T21:54:11.966Z,25.88
2018-12-17T21:56:40.359Z,27.70
2018-12-17T21:59:08.729Z,27.05
2018-12-17T22:01:37.300Z,29.92
2018-12-17T22:04:05.685Z,27.30
2018-12-17T22:06:33.990Z,29.20
2018-12-17T22:09:02.382Z,29.12
2018-12-17T22:11:30.801Z,29.82
2018-12-17T22:13:59.300Z,31.20
2018-12-17T22:16:28.529Z,29.00
2018-12-17T22:18:56.967Z,29.37
2018-12-17T22:21:25.325Z,29.35
2018-12-17T22:23:53.746Z,30.15
2018-12-17T22:26:22.099Z,28.47
2018-12-17T22:28:50.463Z,30.30
2018-12-17T22:31:18.976Z,30.62
2018-12-17T22:33:47.329Z,31.42
2018-12-17T22:36:15.663Z,29.55
2018-12-17T22:38:43.986Z,30.43
2018-12-17T22:41:12.403Z,29.80
2018-12-17T22:43:40.711Z,32.20
2018-12-17T22:46:09.376Z,30.65
2018-12-17T22:48:37.726Z,32.25
2018-12-17T22:51:06.164Z,30.43
2018-12-17T22:53:34.515Z,30.45
2018-12-17T22:56:02.825Z,30.92
2018-12-17T22:58:31.187Z,31.90
2018-12-17T23:00:59.607Z,32.40
2018-12-17T23:03:27.934Z,31.17
2018-12-17T23:05:56.326Z,32.35
2018-12-17T23:08:25.101Z,31.55
2018-12-17T23:11:11.278Z,32.35
2018-12-17T23:13:57.214Z,34.92
2018-12-17T23:16:43.380Z,32.00
2018-12-17T23:19:11.075Z,32.28
2018-12-17T23:21:39.443Z,33.05
2018-12-17T23:24:07.791Z,31.70
2018-12-17T23:26:36.702Z,33.70
2018-12-17T23:29:05.100Z,32.85
2018-12-17T23:31:33.396Z,33.15
2018-12-17T23:34:02.627Z,34.60
2018-12-17T23:36:31.154Z,34.33
2018-12-17T23:38:59.493Z,35.65
2018-12-17T23:41:27.851Z,35.53
2018-12-17T23:43:56.176Z,35.88
2018-12-17T23:46:24.471Z,35.10
2018-12-17T23:48:53.016Z,37.30
2018-12-17T23:51:21.347Z,38.90
2018-12-17T23:53:49.649Z,37.20
2018-12-17T23:56:18.048Z,38.97
2018-12-17T23:58:46.447Z,36.93
